createdAt,value
2023-03-29T00:00:08.206Z,75.32
2023-03-29T00:02:40.989Z,75.11
2023-03-29T00:05:10.043Z,76.38
2023-03-29T00:07:37.386Z,76.54
2023-03-29T00:10:05.870Z,75.57
2023-03-29T00:12:33.778Z,73.93
2023-03-29T00:15:01.926Z,74.73
2023-03-29T00:17:29.625Z,75.06
2023-03-29T00:19:58.866Z,75.59
2023-03-29T00:22:26.432Z,75.82
2023-03-29T00:24:54.300Z,75.39
2023-03-29T00:27:22.216Z,74.84
2023-03-29T00:29:49.796Z,75.84
2023-03-29T00:32:17.271Z,75.22
2023-03-29T00:34:45.933Z,75.03
2023-03-29T00:37:14.861Z,74.92
2023-03-29T00:39:42.607Z,75.34
2023-03-29T00:42:12.988Z,75.50
2023-03-29T00:45:02.149Z,74.96
2023-03-29T00:47:34.999Z,75.59
2023-03-29T00:50:08.429Z,76.34
2023-03-29T00:52:39.556Z,75.83
2023-03-29T00:55:12.197Z,76.22
2023-03-29T00:57:43.274Z,76.20
2023-03-29T01:00:13.890Z,75.33
2023-03-29T01:02:51.016Z,74.79
2023-03-29T01:05:22.572Z,75.57
2023-03-29T01:07:58.057Z,74.88
2023-03-29T01:10:31.766Z,75.66
2023-03-29T01:13:04.817Z,75.70
2023-03-29T01:15:33.686Z,75.39
2023-03-29T01:18:02.023Z,75.51
2023-03-29T01:20:51.523Z,76.84
2023-03-29T01:23:28.529Z,76.44
2023-03-29T01:26:02.969Z,76.42
2023-03-29T01:28:36.155Z,76.81
2023-03-29T01:31:08.468Z,76.75
2023-03-29T01:33:40.625Z,76.38
2023-03-29T01:36:16.464Z,76.78
2023-03-29T01:38:49.577Z,76.22
2023-03-29T01:41:17.325Z,77.24
2023-03-29T01:43:50.588Z,76.71
2023-03-29T01:46:26.660Z,76.22
2023-03-29T01:48:59.777Z,76.84
2023-03-29T01:51:35.847Z,76.70
2023-03-29T01:54:07.773Z,76.56
2023-03-29T01:56:38.710Z,75.93
2023-03-29T01:59:11.937Z,75.64
2023-03-29T02:01:49.410Z,75.99
2023-03-29T02:04:21.279Z,76.77
2023-03-29T02:06:54.188Z,76.30
2023-03-29T02:09:23.357Z,76.12
2023-03-29T02:11:51.819Z,76.13
2023-03-29T02:14:21.236Z,75.84
2023-03-29T02:16:49.972Z,75.71
2023-03-29T02:19:18.710Z,75.49
2023-03-29T02:21:53.370Z,74.91
2023-03-29T02:24:24.261Z,74.24
2023-03-29T02:26:51.911Z,73.46
2023-03-29T02:29:20.701Z,73.78
2023-03-29T02:31:53.564Z,72.78
2023-03-29T02:34:28.187Z,72.41
2023-03-29T02:37:00.121Z,73.13
2023-03-29T02:39:29.459Z,72.50
2023-03-29T02:41:59.498Z,72.64
2023-03-29T02:44:31.977Z,71.00
2023-03-29T02:47:05.698Z,70.62
2023-03-29T02:49:34.764Z,70.50
2023-03-29T02:52:08.823Z,70.72
2023-03-29T02:54:42.978Z,70.95
2023-03-29T02:57:11.371Z,69.26
2023-03-29T02:59:43.726Z,69.50
2023-03-29T03:02:11.748Z,69.85
2023-03-29T03:04:39.432Z,70.42
2023-03-29T03:07:06.876Z,71.01
2023-03-29T03:09:34.353Z,71.37
2023-03-29T03:12:02.048Z,70.26
2023-03-29T03:14:29.621Z,71.33
2023-03-29T03:17:03.873Z,71.38
2023-03-29T03:19:32.120Z,72.09
2023-03-29T03:21:59.821Z,72.35
2023-03-29T03:24:28.104Z,72.16
2023-03-29T03:26:56.808Z,71.97
2023-03-29T03:29:25.342Z,72.33
2023-03-29T03:32:14.383Z,72.30
2023-03-29T03:35:05.621Z,72.11
2023-03-29T03:37:33.845Z,72.88
2023-03-29T03:40:01.389Z,70.54
2023-03-29T03:42:30.046Z,70.65
2023-03-29T03:44:58.595Z,71.01
2023-03-29T03:47:46.230Z,70.28
2023-03-29T03:50:40.333Z,69.67
2023-03-29T03:53:09.345Z,70.07
2023-03-29T03:56:16.322Z,70.57
2023-03-29T03:59:02.735Z,70.29
2023-03-29T04:01:35.518Z,69.42
2023-03-29T04:04:14.528Z,69.67
2023-03-29T04:06:52.833Z,69.17
2023-03-29T04:09:36.266Z,69.46
2023-03-29T04:12:23.215Z,69.68
2023-03-29T04:14:51.670Z,70.31
2023-03-29T04:17:23.252Z,69.19
2023-03-29T04:20:12.860Z,70.15
2023-03-29T04:22:41.753Z,69.58
2023-03-29T04:25:10.468Z,70.35
2023-03-29T04:27:41.125Z,68.93
2023-03-29T04:30:28.669Z,69.40
2023-03-29T04:33:25.264Z,69.49
2023-03-29T04:36:01.230Z,70.05
2023-03-29T04:38:30.736Z,70.95
2023-03-29T04:41:01.080Z,70.37
2023-03-29T04:43:47.674Z,70.43
2023-03-29T04:46:25.484Z,70.18
2023-03-29T04:49:11.470Z,70.60
2023-03-29T04:51:43.575Z,71.09
2023-03-29T04:54:11.957Z,71.52
2023-03-29T04:56:56.623Z,70.40
2023-03-29T04:59:44.440Z,71.24
2023-03-29T05:02:32.351Z,71.46
2023-03-29T05:05:00.141Z,70.85
2023-03-29T05:07:29.767Z,71.14
2023-03-29T05:09:57.287Z,70.80
2023-03-29T05:12:24.704Z,71.96
2023-03-29T05:14:53.549Z,71.40
2023-03-29T05:17:26.727Z,71.58
2023-03-29T05:19:57.044Z,71.92
2023-03-29T05:22:26.497Z,72.54
2023-03-29T05:24:55.516Z,73.31
2023-03-29T05:27:23.904Z,72.40
2023-03-29T05:30:01.736Z,72.01
2023-03-29T05:32:36.799Z,71.59
2023-03-29T05:35:05.826Z,71.87
2023-03-29T05:37:34.816Z,72.50
2023-03-29T05:40:08.504Z,71.58
2023-03-29T05:42:48.615Z,71.41
2023-03-29T05:45:17.183Z,71.49
2023-03-29T05:47:45.300Z,71.96
2023-03-29T05:50:13.308Z,72.17
2023-03-29T05:52:41.511Z,72.47
2023-03-29T05:55:11.032Z,72.07
2023-03-29T05:57:38.834Z,72.20
2023-03-29T06:00:23.028Z,71.99
2023-03-29T06:03:03.701Z,71.27
2023-03-29T06:05:41.247Z,72.50
2023-03-29T06:08:09.911Z,72.37
2023-03-29T06:10:59.669Z,72.33
2023-03-29T06:13:48.076Z,72.65
2023-03-29T06:16:16.523Z,72.24
2023-03-29T06:18:44.866Z,71.76
2023-03-29T06:21:12.679Z,71.74
2023-03-29T06:23:41.784Z,71.99
2023-03-29T06:26:10.988Z,71.10
2023-03-29T06:28:39.648Z,70.44
2023-03-29T06:31:07.232Z,72.28
2023-03-29T06:33:40.216Z,71.12
2023-03-29T06:36:22.430Z,71.22
2023-03-29T06:38:50.001Z,69.38
2023-03-29T06:41:30.467Z,69.73
2023-03-29T06:44:06.691Z,70.47
2023-03-29T06:46:38.669Z,69.06
2023-03-29T06:49:08.318Z,68.50
2023-03-29T06:51:46.991Z,68.92
2023-03-29T06:54:14.619Z,68.47
2023-03-29T06:56:52.484Z,68.04
2023-03-29T06:59:22.324Z,67.28
2023-03-29T07:01:58.884Z,66.35
2023-03-29T07:04:52.479Z,65.68
2023-03-29T07:07:33.174Z,66.64
2023-03-29T07:10:13.902Z,63.48
2023-03-29T07:13:12.144Z,62.82
2023-03-29T07:15:40.198Z,61.88
2023-03-29T07:18:27.863Z,61.71
2023-03-29T07:20:55.292Z,60.83
2023-03-29T07:23:23.644Z,61.01
2023-03-29T07:25:51.768Z,59.68
2023-03-29T07:28:21.400Z,58.82
2023-03-29T07:30:49.673Z,60.12
2023-03-29T07:33:20.115Z,60.53
2023-03-29T07:35:53.943Z,58.21
2023-03-29T07:38:21.641Z,60.28
2023-03-29T07:40:58.201Z,60.34
2023-03-29T07:43:43.252Z,58.98
2023-03-29T07:46:12.758Z,60.51
2023-03-29T07:48:40.267Z,59.20
2023-03-29T07:51:14.114Z,57.58
2023-03-29T07:53:46.293Z,58.92
2023-03-29T07:56:34.386Z,58.72
2023-03-29T07:59:32.488Z,58.74
2023-03-29T08:02:13.140Z,56.75
2023-03-29T08:04:44.937Z,56.98
2023-03-29T08:07:21.810Z,55.83
2023-03-29T08:10:09.720Z,55.78
2023-03-29T08:12:55.619Z,56.87
2023-03-29T08:15:47.302Z,54.21
2023-03-29T08:18:24.850Z,54.25
2023-03-29T08:20:52.746Z,55.12
2023-03-29T08:23:20.182Z,54.41
2023-03-29T08:26:10.250Z,56.00
2023-03-29T08:28:38.743Z,54.95
2023-03-29T08:31:10.021Z,54.41
2023-03-29T08:33:42.247Z,54.84
2023-03-29T08:36:44.654Z,53.41
2023-03-29T08:39:28.283Z,55.02
2023-03-29T08:42:37.780Z,54.72
2023-03-29T08:45:14.716Z,53.92
2023-03-29T08:47:53.458Z,53.62
2023-03-29T08:50:32.459Z,54.01
2023-03-29T08:53:05.503Z,55.60
2023-03-29T08:56:02.457Z,53.48
2023-03-29T08:59:03.242Z,53.92
2023-03-29T09:01:36.253Z,51.52
2023-03-29T09:04:10.005Z,52.72
2023-03-29T09:06:50.161Z,49.99
2023-03-29T09:09:24.202Z,51.88
2023-03-29T09:12:06.069Z,50.02
2023-03-29T09:14:48.872Z,50.02
2023-03-29T09:17:35.661Z,49.38
2023-03-29T09:20:21.283Z,49.24
2023-03-29T09:22:57.842Z,47.26
2023-03-29T09:25:50.840Z,48.92
2023-03-29T09:28:29.516Z,48.52
2023-03-29T09:31:03.916Z,47.13
2023-03-29T09:33:42.796Z,47.97
2023-03-29T09:36:22.972Z,46.87
2023-03-29T09:38:54.538Z,47.23
2023-03-29T09:41:31.208Z,47.30
2023-03-29T09:44:10.939Z,47.10
2023-03-29T09:46:47.489Z,46.06
2023-03-29T09:49:20.508Z,46.44
2023-03-29T09:51:50.357Z,45.10
2023-03-29T09:54:20.145Z,45.07
2023-03-29T09:57:06.889Z,46.57
2023-03-29T09:59:36.082Z,45.54
2023-03-29T10:02:08.623Z,43.94
2023-03-29T10:04:36.890Z,44.85
2023-03-29T10:07:08.649Z,46.17
2023-03-29T10:09:36.663Z,44.18
2023-03-29T10:12:16.027Z,46.23
2023-03-29T10:14:46.472Z,47.68
2023-03-29T10:17:18.643Z,45.86
2023-03-29T10:19:51.088Z,43.37
2023-03-29T10:22:23.699Z,45.60
2023-03-29T10:24:53.146Z,44.05
2023-03-29T10:27:23.594Z,44.49
2023-03-29T10:29:51.916Z,45.65
2023-03-29T10:32:28.240Z,45.60
2023-03-29T10:35:03.770Z,44.41
2023-03-29T10:37:32.714Z,43.49
2023-03-29T10:40:00.278Z,43.93
2023-03-29T10:42:28.650Z,42.68
2023-03-29T10:44:58.266Z,43.93
2023-03-29T10:47:26.882Z,42.79
2023-03-29T10:49:57.194Z,45.00
2023-03-29T10:52:25.844Z,45.50
2023-03-29T10:54:56.430Z,45.32
2023-03-29T10:57:30.440Z,44.59
2023-03-29T11:00:05.130Z,44.29
2023-03-29T11:02:59.673Z,45.71
2023-03-29T11:05:36.814Z,45.86
2023-03-29T11:08:19.427Z,44.74
2023-03-29T11:10:58.966Z,44.41
2023-03-29T11:13:37.423Z,45.45
2023-03-29T11:16:16.534Z,45.82
2023-03-29T11:18:58.594Z,45.57
2023-03-29T11:21:31.453Z,43.20
2023-03-29T11:24:21.977Z,42.96
2023-03-29T11:27:05.623Z,43.47
2023-03-29T11:29:39.444Z,44.06
2023-03-29T11:32:13.262Z,43.47
2023-03-29T11:34:53.212Z,43.59
2023-03-29T11:37:28.023Z,42.82
2023-03-29T11:40:09.519Z,43.15
2023-03-29T11:42:43.122Z,43.50
2023-03-29T11:45:17.567Z,43.14
2023-03-29T11:47:47.475Z,41.68
2023-03-29T11:50:19.626Z,42.19
2023-03-29T11:52:53.330Z,41.66
2023-03-29T11:55:26.151Z,40.53
2023-03-29T11:57:58.946Z,42.06
2023-03-29T12:00:31.072Z,41.87
2023-03-29T12:03:03.392Z,38.31
2023-03-29T12:05:33.939Z,37.87
2023-03-29T12:08:07.151Z,38.33
2023-03-29T12:10:40.565Z,39.76
2023-03-29T12:13:16.760Z,38.27
2023-03-29T12:15:50.679Z,38.27
2023-03-29T12:18:22.867Z,37.28
2023-03-29T12:20:57.488Z,37.52
2023-03-29T12:23:29.744Z,38.55
2023-03-29T12:26:03.798Z,39.28
2023-03-29T12:28:50.204Z,40.30
2023-03-29T12:31:27.605Z,40.34
2023-03-29T12:34:30.950Z,39.52
2023-03-29T12:37:24.572Z,37.26
2023-03-29T12:40:14.107Z,38.21
2023-03-29T12:43:03.347Z,39.80
2023-03-29T12:45:57.020Z,39.51
2023-03-29T12:48:27.651Z,36.36
2023-03-29T12:51:01.213Z,35.87
2023-03-29T12:53:34.412Z,36.31
2023-03-29T12:56:15.177Z,36.99
2023-03-29T12:58:53.011Z,38.46
2023-03-29T13:01:30.368Z,38.24
2023-03-29T13:04:14.432Z,37.83
2023-03-29T13:07:02.686Z,37.77
2023-03-29T13:09:36.729Z,38.83
2023-03-29T13:12:08.869Z,39.67
2023-03-29T13:14:42.615Z,39.46
2023-03-29T13:17:27.444Z,39.98
2023-03-29T13:20:33.525Z,41.12
2023-03-29T13:23:18.041Z,41.20
2023-03-29T13:26:01.780Z,40.65
2023-03-29T13:28:37.576Z,43.15
2023-03-29T13:31:15.789Z,46.48
2023-03-29T13:33:57.149Z,47.89
2023-03-29T13:36:44.640Z,47.73
2023-03-29T13:39:19.339Z,48.67
2023-03-29T13:41:51.011Z,48.53
2023-03-29T13:44:26.074Z,48.71
2023-03-29T13:47:06.516Z,49.49
2023-03-29T13:49:35.944Z,50.20
2023-03-29T13:52:13.162Z,50.06
2023-03-29T13:54:45.747Z,49.47
2023-03-29T13:57:17.689Z,50.72
2023-03-29T13:59:57.203Z,50.43
2023-03-29T14:02:45.122Z,51.62
2023-03-29T14:05:17.726Z,51.52
2023-03-29T14:07:50.070Z,52.25
2023-03-29T14:10:21.656Z,50.82
2023-03-29T14:12:49.636Z,51.42
2023-03-29T14:15:24.622Z,51.02
2023-03-29T14:17:58.955Z,51.42
2023-03-29T14:20:32.888Z,52.37
2023-03-29T14:23:00.409Z,52.00
2023-03-29T14:25:29.375Z,52.86
2023-03-29T14:27:56.866Z,52.16
2023-03-29T14:30:27.560Z,51.33
2023-03-29T14:32:56.660Z,49.83
2023-03-29T14:35:32.324Z,50.35
2023-03-29T14:38:00.548Z,50.32
2023-03-29T14:40:30.832Z,51.75
2023-03-29T14:43:00.812Z,54.10
2023-03-29T14:45:28.863Z,55.55
2023-03-29T14:47:56.665Z,57.68
2023-03-29T14:50:28.118Z,55.63
2023-03-29T14:53:00.599Z,58.18
2023-03-29T14:55:28.236Z,58.06
2023-03-29T14:57:57.331Z,58.64
2023-03-29T15:00:30.151Z,58.98
2023-03-29T15:03:00.538Z,58.21
2023-03-29T15:05:34.775Z,57.19
2023-03-29T15:08:07.230Z,57.35
2023-03-29T15:10:36.700Z,57.11
2023-03-29T15:13:06.744Z,58.72
2023-03-29T15:15:37.140Z,58.02
2023-03-29T15:18:07.293Z,57.80
2023-03-29T15:20:38.247Z,58.78
2023-03-29T15:23:21.584Z,59.01
2023-03-29T15:25:54.409Z,57.50
2023-03-29T15:28:29.015Z,58.40
2023-03-29T15:31:07.643Z,57.37
2023-03-29T15:33:38.308Z,57.11
2023-03-29T15:36:08.870Z,58.22
2023-03-29T15:38:44.570Z,57.24
2023-03-29T15:41:14.366Z,56.46
2023-03-29T15:43:42.546Z,56.46
2023-03-29T15:46:12.795Z,56.89
2023-03-29T15:48:40.837Z,56.16
2023-03-29T15:51:10.927Z,56.24
2023-03-29T15:53:40.858Z,57.49
2023-03-29T15:56:11.535Z,55.45
2023-03-29T15:58:39.277Z,56.93
2023-03-29T16:01:13.623Z,56.20
2023-03-29T16:03:41.714Z,56.45
2023-03-29T16:06:11.160Z,57.40
2023-03-29T16:08:41.373Z,56.45
2023-03-29T16:11:09.166Z,56.82
2023-03-29T16:13:36.668Z,55.72
2023-03-29T16:16:04.981Z,55.77
2023-03-29T16:18:32.623Z,55.26
2023-03-29T16:21:00.117Z,56.58
2023-03-29T16:23:27.513Z,56.56
2023-03-29T16:25:56.750Z,55.22
2023-03-29T16:28:24.194Z,55.75
2023-03-29T16:30:51.789Z,55.79
2023-03-29T16:33:19.340Z,56.37
2023-03-29T16:35:47.346Z,57.01
2023-03-29T16:38:14.929Z,58.01
2023-03-29T16:40:42.719Z,58.05
2023-03-29T16:43:18.685Z,57.20
2023-03-29T16:45:46.359Z,56.93
2023-03-29T16:48:17.167Z,57.94
2023-03-29T16:50:45.071Z,57.37
2023-03-29T16:53:12.653Z,58.58
2023-03-29T16:55:40.291Z,58.16
2023-03-29T16:58:08.506Z,59.73
2023-03-29T17:00:37.952Z,59.27
2023-03-29T17:03:08.897Z,59.15
2023-03-29T17:05:41.694Z,58.44
2023-03-29T17:08:10.185Z,58.79
2023-03-29T17:10:39.746Z,58.94
2023-03-29T17:13:08.077Z,59.28
2023-03-29T17:15:39.434Z,59.41
2023-03-29T17:18:07.325Z,59.43
2023-03-29T17:20:38.053Z,59.58
2023-03-29T17:23:05.660Z,59.75
2023-03-29T17:25:33.113Z,60.12
2023-03-29T17:28:00.826Z,60.89
2023-03-29T17:30:28.434Z,61.11
2023-03-29T17:32:57.328Z,61.33
2023-03-29T17:35:26.447Z,61.31
2023-03-29T17:37:54.812Z,61.81
2023-03-29T17:40:22.496Z,61.64
2023-03-29T17:42:52.452Z,61.74
2023-03-29T17:45:20.219Z,62.60
2023-03-29T17:47:47.745Z,62.50
2023-03-29T17:50:17.171Z,62.48
2023-03-29T17:52:45.112Z,63.21
2023-03-29T17:55:16.215Z,64.60
2023-03-29T17:57:43.898Z,65.29
2023-03-29T18:00:13.748Z,65.83
2023-03-29T18:02:41.847Z,67.72
2023-03-29T18:05:10.183Z,68.01
2023-03-29T18:07:39.239Z,68.47
2023-03-29T18:10:08.161Z,69.43
2023-03-29T18:12:36.731Z,69.94
2023-03-29T18:15:04.318Z,68.45
2023-03-29T18:17:31.813Z,68.84
2023-03-29T18:19:59.297Z,68.47
2023-03-29T18:22:26.760Z,68.09
2023-03-29T18:24:56.463Z,68.40
2023-03-29T18:27:23.920Z,68.40
2023-03-29T18:29:51.419Z,69.59
2023-03-29T18:32:19.030Z,69.67
2023-03-29T18:34:46.546Z,69.08
2023-03-29T18:37:15.100Z,69.96
2023-03-29T18:39:43.015Z,69.77
2023-03-29T18:42:12.791Z,69.45
2023-03-29T18:44:40.652Z,68.95
2023-03-29T18:47:08.418Z,68.90
2023-03-29T18:49:36.620Z,69.57
2023-03-29T18:52:05.769Z,69.65
2023-03-29T18:54:33.201Z,70.15
2023-03-29T18:57:00.782Z,70.98
2023-03-29T18:59:29.757Z,71.07
2023-03-29T19:01:57.279Z,71.35
2023-03-29T19:04:26.806Z,71.31
2023-03-29T19:06:55.588Z,71.50
2023-03-29T19:09:23.171Z,71.33
2023-03-29T19:11:50.727Z,71.84
2023-03-29T19:14:23.330Z,71.97
2023-03-29T19:16:53.285Z,72.18
2023-03-29T19:19:23.283Z,71.77
2023-03-29T19:21:50.772Z,72.45
2023-03-29T19:24:18.163Z,71.89
2023-03-29T19:26:47.911Z,72.44
2023-03-29T19:29:15.461Z,72.72
2023-03-29T19:31:43.167Z,72.43
2023-03-29T19:34:12.337Z,71.93
2023-03-29T19:36:39.936Z,72.17
2023-03-29T19:39:08.053Z,72.86
2023-03-29T19:41:35.642Z,72.68
2023-03-29T19:44:03.681Z,72.69
2023-03-29T19:46:31.304Z,72.76
2023-03-29T19:49:00.421Z,72.39
2023-03-29T19:51:29.373Z,71.99
2023-03-29T19:53:57.042Z,71.91
2023-03-29T19:56:25.784Z,72.16
2023-03-29T19:58:53.559Z,72.53
2023-03-29T20:01:22.137Z,72.22
2023-03-29T20:03:49.692Z,71.58
2023-03-29T20:06:18.518Z,71.72
2023-03-29T20:08:47.211Z,72.33
2023-03-29T20:11:15.754Z,71.87
2023-03-29T20:13:44.004Z,71.71
2023-03-29T20:16:13.119Z,72.08
2023-03-29T20:18:40.658Z,71.94
2023-03-29T20:21:09.224Z,72.67
2023-03-29T20:23:36.637Z,71.94
2023-03-29T20:26:07.318Z,71.60
2023-03-29T20:28:37.477Z,71.88
2023-03-29T20:31:06.795Z,71.21
2023-03-29T20:33:34.377Z,70.00
2023-03-29T20:36:01.919Z,69.78
2023-03-29T20:38:29.427Z,70.29
2023-03-29T20:40:56.884Z,71.07
2023-03-29T20:43:25.803Z,70.39
2023-03-29T20:45:54.463Z,70.27
2023-03-29T20:48:24.160Z,70.91
2023-03-29T20:50:51.947Z,70.83
2023-03-29T20:53:20.539Z,69.86
2023-03-29T20:55:48.394Z,70.21
2023-03-29T20:58:16.036Z,70.31
2023-03-29T21:00:45.296Z,71.22
2023-03-29T21:03:12.785Z,70.55
2023-03-29T21:05:40.265Z,70.66
2023-03-29T21:08:08.437Z,70.11
2023-03-29T21:10:36.462Z,70.63
2023-03-29T21:13:03.895Z,70.08
2023-03-29T21:15:31.886Z,69.86
2023-03-29T21:18:01.247Z,70.11
2023-03-29T21:20:28.685Z,69.74
2023-03-29T21:22:56.541Z,69.11
2023-03-29T21:25:23.996Z,69.40
2023-03-29T21:27:51.399Z,70.07
2023-03-29T21:30:18.778Z,70.02
2023-03-29T21:32:46.922Z,69.33
2023-03-29T21:35:16.035Z,69.09
2023-03-29T21:37:43.507Z,69.42
2023-03-29T21:40:12.610Z,69.78
2023-03-29T21:42:40.419Z,70.14
2023-03-29T21:45:09.614Z,70.48
2023-03-29T21:47:37.164Z,69.92
2023-03-29T21:50:05.442Z,69.00
2023-03-29T21:52:34.219Z,68.20
2023-03-29T21:55:01.731Z,67.73
2023-03-29T21:57:29.602Z,67.84
2023-03-29T21:59:57.369Z,68.34
2023-03-29T22:02:24.996Z,68.89
2023-03-29T22:04:52.593Z,69.95
2023-03-29T22:07:22.550Z,68.90
2023-03-29T22:09:51.448Z,69.77
2023-03-29T22:12:19.013Z,69.50
2023-03-29T22:14:46.616Z,69.99
2023-03-29T22:17:16.002Z,69.87
2023-03-29T22:19:43.445Z,70.38
2023-03-29T22:22:14.176Z,70.72
2023-03-29T22:24:42.333Z,70.93
2023-03-29T22:27:11.661Z,71.59
2023-03-29T22:29:39.141Z,71.31
2023-03-29T22:32:06.854Z,72.20
2023-03-29T22:34:34.503Z,71.93
2023-03-29T22:37:02.014Z,72.03
2023-03-29T22:39:29.884Z,72.20
2023-03-29T22:41:57.450Z,72.35
2023-03-29T22:44:26.951Z,71.86
2023-03-29T22:46:54.468Z,72.39
2023-03-29T22:49:22.036Z,72.72
2023-03-29T22:51:49.532Z,72.48
2023-03-29T22:54:17.009Z,71.54
2023-03-29T22:56:44.438Z,71.96
2023-03-29T22:59:12.131Z,72.70
2023-03-29T23:01:40.983Z,72.60
2023-03-29T23:04:08.478Z,72.00
2023-03-29T23:06:36.083Z,72.05
2023-03-29T23:09:03.757Z,72.46
2023-03-29T23:11:31.160Z,71.76
2023-03-29T23:13:58.915Z,71.73
2023-03-29T23:16:26.679Z,70.52
2023-03-29T23:18:56.470Z,66.72
2023-03-29T23:21:24.126Z,66.93
2023-03-29T23:23:51.589Z,68.04
2023-03-29T23:26:19.084Z,67.85
2023-03-29T23:28:46.594Z,68.23
2023-03-29T23:31:17.845Z,69.46
2023-03-29T23:33:45.671Z,69.16
2023-03-29T23:36:15.731Z,69.08
2023-03-29T23:38:44.810Z,69.49
2023-03-29T23:41:13.165Z,69.52
2023-03-29T23:43:42.863Z,69.46
2023-03-29T23:46:13.069Z,70.31
2023-03-29T23:48:43.422Z,70.54
2023-03-29T23:51:11.843Z,70.23
2023-03-29T23:53:41.215Z,70.27
2023-03-29T23:56:09.099Z,71.36
2023-03-29T23:58:38.067Z,70.84
